createdAt,value
2018-05-11T00:01:01.571Z,6.27
2018-05-11T00:03:31.415Z,5.93
2018-05-11T00:06:14.670Z,9.50
2018-05-11T00:08:43.308Z,6.87
2018-05-11T00:11:11.868Z,6.30
2018-05-11T00:13:41.723Z,5.83
2018-05-11T00:16:12.276Z,8.07
2018-05-11T00:18:41.256Z,10.13
2018-05-11T00:21:11.978Z,8.50
2018-05-11T00:23:41.759Z,7.47
2018-05-11T00:26:11.445Z,7.30
2018-05-11T00:28:43.079Z,8.37
2018-05-11T00:31:11.894Z,9.00
2018-05-11T00:33:41.855Z,6.43
2018-05-11T00:36:13.365Z,8.83
2018-05-11T00:39:01.119Z,7.03
2018-05-11T00:41:41.466Z,10.13
2018-05-11T00:44:12.105Z,9.90
2018-05-11T00:46:42.105Z,12.37
2018-05-11T00:52:12.813Z,7.13
2018-05-11T00:54:41.473Z,8.47
2018-05-11T00:57:11.717Z,9.20
2018-05-11T00:59:41.562Z,13.03
2018-05-11T01:02:12.087Z,8.00
2018-05-11T01:04:41.717Z,11.50
2018-05-11T01:07:12.652Z,7.60
2018-05-11T01:09:43.537Z,11.00
2018-05-11T01:12:12.870Z,9.63
2018-05-11T01:14:41.879Z,9.73
2018-05-11T01:17:11.370Z,8.70
2018-05-11T01:19:43.214Z,8.90
2018-05-11T01:22:11.769Z,12.37
2018-05-11T01:24:41.657Z,10.37
2018-05-11T01:27:11.262Z,9.63
2018-05-11T01:29:42.990Z,10.53
2018-05-11T01:32:11.592Z,7.80
2018-05-11T01:34:41.338Z,7.10
2018-05-11T01:37:11.221Z,9.60
2018-05-11T01:39:41.926Z,9.10
2018-05-11T01:42:12.364Z,8.73
2018-05-11T01:44:41.223Z,12.57
2018-05-11T01:47:12.978Z,9.10
2018-05-11T01:49:41.796Z,13.03
2018-05-11T01:52:11.467Z,8.20
2018-05-11T01:54:41.468Z,11.47
2018-05-11T01:57:16.624Z,7.97
2018-05-11T01:59:45.962Z,9.57
2018-05-11T02:02:16.344Z,9.17
2018-05-11T02:04:46.227Z,12.00
2018-05-11T02:07:16.187Z,10.20
2018-05-11T02:09:46.468Z,11.10
2018-05-11T02:12:16.468Z,8.37
2018-05-11T02:14:45.810Z,10.40
2018-05-11T02:17:15.671Z,9.83
2018-05-11T02:19:46.287Z,9.53
2018-05-11T02:22:15.952Z,9.10
2018-05-11T02:24:46.612Z,9.70
2018-05-11T02:27:16.396Z,9.67
2018-05-11T02:29:46.358Z,11.47
2018-05-11T02:32:16.105Z,13.63
2018-05-11T02:34:45.733Z,6.83
2018-05-11T02:37:16.560Z,11.97
2018-05-11T02:39:46.266Z,10.90
2018-05-11T02:42:16.115Z,11.30
2018-05-11T02:44:45.947Z,10.47
2018-05-11T02:47:17.660Z,9.73
2018-05-11T02:49:46.215Z,10.97
2018-05-11T02:52:15.705Z,10.10
2018-05-11T02:54:51.195Z,15.87
2018-05-11T02:57:27.011Z,10.80
2018-05-11T02:59:56.161Z,10.10
2018-05-11T03:02:26.481Z,11.37
2018-05-11T03:04:56.319Z,8.13
2018-05-11T03:07:26.223Z,8.67
2018-05-11T03:09:56.674Z,11.27
2018-05-11T03:12:26.035Z,8.50
2018-05-11T03:14:56.429Z,9.23
2018-05-11T03:17:26.699Z,8.87
2018-05-11T03:19:55.983Z,10.80
2018-05-11T03:22:26.472Z,10.77
2018-05-11T03:24:56.102Z,11.17
2018-05-11T03:27:26.581Z,14.10
2018-05-11T03:30:03.336Z,13.90
2018-05-11T03:32:45.717Z,11.27
2018-05-11T03:35:15.052Z,10.80
2018-05-11T03:37:43.672Z,10.73
2018-05-11T03:40:13.687Z,11.70
2018-05-11T03:42:43.491Z,10.03
2018-05-11T03:45:14.477Z,10.70
2018-05-11T03:47:44.437Z,11.17
2018-05-11T03:50:13.738Z,12.17
2018-05-11T03:52:43.795Z,11.83
2018-05-11T03:55:13.495Z,11.63
2018-05-11T03:57:45.329Z,12.53
2018-05-11T04:00:14.010Z,9.43
2018-05-11T04:03:01.865Z,10.50
2018-05-11T04:05:48.321Z,16.80
2018-05-11T04:11:12.667Z,12.33
2018-05-11T04:13:43.231Z,12.63
2018-05-11T04:16:14.215Z,11.00
2018-05-11T04:18:43.964Z,19.03
2018-05-11T04:21:13.992Z,13.40
2018-05-11T04:23:43.687Z,11.20
2018-05-11T04:26:13.559Z,14.10
2018-05-11T04:29:07.295Z,12.90
2018-05-11T04:34:15.008Z,13.07
2018-05-11T04:36:44.400Z,12.87
2018-05-11T04:39:14.104Z,15.20
2018-05-11T04:41:43.855Z,15.70
2018-05-11T04:44:15.740Z,13.27
2018-05-11T04:46:44.363Z,13.47
2018-05-11T04:49:14.655Z,15.77
2018-05-11T04:54:44.314Z,18.47
2018-05-11T04:57:16.091Z,14.80
2018-05-11T04:59:44.609Z,13.60
2018-05-11T05:02:15.693Z,13.17
2018-05-11T05:04:44.261Z,15.40
2018-05-11T05:07:15.767Z,17.33
2018-05-11T05:09:44.539Z,17.60
2018-05-11T05:12:14.085Z,18.10
2018-05-11T05:14:43.902Z,16.20
2018-05-11T05:17:14.235Z,19.70
2018-05-11T05:19:44.217Z,20.17
2018-05-11T05:22:13.891Z,17.20
2018-05-11T05:24:45.470Z,18.40
2018-05-11T05:27:15.280Z,21.73
2018-05-11T05:29:44.680Z,25.63
2018-05-11T05:32:14.006Z,20.67
2018-05-11T05:34:45.311Z,18.53
2018-05-11T05:37:14.841Z,19.30
2018-05-11T05:39:44.971Z,17.57
2018-05-11T05:42:14.484Z,18.17
2018-05-11T05:47:46.022Z,17.00
2018-05-11T05:50:14.670Z,20.30
2018-05-11T05:52:44.816Z,18.27
2018-05-11T05:55:14.576Z,23.43
2018-05-11T05:57:45.265Z,19.27
2018-05-11T06:00:15.037Z,15.67
2018-05-11T06:02:44.701Z,22.37
2018-05-11T06:05:15.090Z,20.00
2018-05-11T06:07:45.041Z,20.97
2018-05-11T06:10:14.717Z,25.00
2018-05-11T06:12:44.370Z,24.00
2018-05-11T06:15:16.208Z,20.10
2018-05-11T06:17:44.979Z,24.53
2018-05-11T06:20:14.759Z,28.87
2018-05-11T06:22:44.635Z,24.00
2018-05-11T06:25:15.772Z,24.57
2018-05-11T06:27:44.387Z,24.60
2018-05-11T06:30:14.757Z,26.90
2018-05-11T06:32:45.476Z,27.23
2018-05-11T06:35:15.117Z,19.33
2018-05-11T06:37:44.995Z,20.90
2018-05-11T06:40:14.921Z,19.53
2018-05-11T06:42:45.728Z,19.57
2018-05-11T06:45:14.766Z,23.00
2018-05-11T06:47:46.395Z,24.67
2018-05-11T06:50:15.005Z,23.23
2018-05-11T06:52:44.900Z,26.70
2018-05-11T06:55:17.800Z,24.03
2018-05-11T06:57:46.424Z,23.13
2018-05-11T07:00:15.080Z,18.20
2018-05-11T07:02:45.251Z,21.13
2018-05-11T07:05:14.975Z,26.70
2018-05-11T07:07:43.621Z,21.40
2018-05-11T07:10:13.111Z,23.63
2018-05-11T07:12:41.690Z,26.80
2018-05-11T07:15:10.364Z,26.27
2018-05-11T07:17:40.276Z,27.50
2018-05-11T07:20:09.951Z,32.10
2018-05-11T07:22:40.507Z,32.47
2018-05-11T07:25:10.354Z,28.57
2018-05-11T07:27:41.203Z,28.20
2018-05-11T07:30:09.752Z,26.77
2018-05-11T07:32:39.826Z,26.60
2018-05-11T07:35:11.826Z,23.60
2018-05-11T07:37:41.158Z,19.13
2018-05-11T07:40:09.681Z,21.53
2018-05-11T07:42:40.047Z,18.67
2018-05-11T07:45:09.896Z,22.80
2018-05-11T07:47:39.670Z,22.83
2018-05-11T07:50:11.565Z,19.90
2018-05-11T07:52:40.127Z,18.70
2018-05-11T07:55:10.107Z,20.50
2018-05-11T07:57:39.978Z,25.53
2018-05-11T08:00:09.840Z,22.13
2018-05-11T08:02:39.819Z,19.73
2018-05-11T08:05:11.643Z,19.70
2018-05-11T08:07:40.200Z,22.93
2018-05-11T08:10:10.663Z,18.30
2018-05-11T08:12:40.396Z,22.70
2018-05-11T08:15:10.783Z,17.30
2018-05-11T08:17:40.514Z,19.10
2018-05-11T08:20:10.136Z,17.57
2018-05-11T08:22:41.825Z,16.23
2018-05-11T08:25:11.265Z,18.90
2018-05-11T08:27:40.302Z,16.20
2018-05-11T08:30:10.885Z,19.50
2018-05-11T08:32:40.783Z,16.93
2018-05-11T08:35:10.608Z,15.20
2018-05-11T08:37:40.510Z,15.67
2018-05-11T08:40:10.072Z,15.90
2018-05-11T08:42:41.727Z,19.83
2018-05-11T08:45:10.259Z,13.63
2018-05-11T08:47:40.236Z,15.67
2018-05-11T08:50:10.867Z,15.20
2018-05-11T08:52:40.582Z,16.60
2018-05-11T08:55:10.202Z,14.13
2018-05-11T08:57:38.658Z,15.23
2018-05-11T09:00:07.942Z,14.13
2018-05-11T09:02:38.227Z,14.97
2018-05-11T09:05:10.404Z,15.30
2018-05-11T09:07:41.007Z,17.07
2018-05-11T09:10:10.460Z,15.77
2018-05-11T09:12:40.434Z,14.37
2018-05-11T09:15:11.967Z,15.47
2018-05-11T09:17:40.666Z,16.17
2018-05-11T09:20:10.906Z,14.10
2018-05-11T09:22:41.143Z,11.90
2018-05-11T09:25:11.118Z,13.37
2018-05-11T09:27:40.470Z,15.10
2018-05-11T09:30:11.402Z,13.23
2018-05-11T09:32:40.966Z,12.67
2018-05-11T09:35:10.722Z,14.03
2018-05-11T09:37:40.204Z,11.17
2018-05-11T09:40:10.529Z,13.00
2018-05-11T09:42:39.163Z,12.30
2018-05-11T09:45:07.858Z,12.53
2018-05-11T09:47:36.643Z,12.60
2018-05-11T09:50:05.399Z,12.27
2018-05-11T09:52:35.886Z,11.97
2018-05-11T09:55:04.449Z,11.23
2018-05-11T09:57:32.824Z,11.87
2018-05-11T10:00:01.383Z,12.63
2018-05-11T10:02:29.914Z,11.90
2018-05-11T10:04:58.379Z,10.37
2018-05-11T10:07:26.830Z,10.87
2018-05-11T10:09:55.401Z,12.53
2018-05-11T10:12:24.004Z,10.47
2018-05-11T10:14:52.568Z,13.30
2018-05-11T10:17:21.202Z,10.77
2018-05-11T10:19:50.455Z,8.60
2018-05-11T10:22:19.033Z,10.47
2018-05-11T10:24:47.474Z,10.60
2018-05-11T10:27:15.984Z,12.30
2018-05-11T10:29:44.454Z,11.97
2018-05-11T10:32:13.798Z,9.97
2018-05-11T10:34:42.326Z,10.07
2018-05-11T10:37:10.880Z,12.00
2018-05-11T10:39:40.476Z,11.03
2018-05-11T10:42:10.186Z,10.03
2018-05-11T10:44:38.726Z,9.33
2018-05-11T10:47:07.182Z,9.07
2018-05-11T10:49:36.491Z,12.13
2018-05-11T10:52:04.985Z,12.83
2018-05-11T10:54:33.465Z,11.03
2018-05-11T10:57:01.953Z,10.03
2018-05-11T10:59:30.473Z,12.17
2018-05-11T11:01:59.056Z,10.63
2018-05-11T11:04:27.866Z,10.33
2018-05-11T11:06:56.604Z,11.53
2018-05-11T11:09:25.190Z,14.13
2018-05-11T11:11:54.657Z,10.67
2018-05-11T11:14:23.188Z,10.20
2018-05-11T11:16:51.810Z,9.90
2018-05-11T11:19:20.475Z,10.30
2018-05-11T11:21:50.874Z,10.13
2018-05-11T11:24:20.401Z,10.03
2018-05-11T11:26:50.348Z,9.83
2018-05-11T11:29:21.807Z,8.10
2018-05-11T11:31:50.747Z,8.37
2018-05-11T11:34:20.207Z,12.73
2018-05-11T11:36:50.447Z,8.30
2018-05-11T11:39:19.973Z,8.43
2018-05-11T11:41:49.701Z,8.60
2018-05-11T11:44:20.617Z,9.53
2018-05-11T11:46:49.561Z,8.33
2018-05-11T11:49:20.012Z,7.33
2018-05-11T11:51:50.844Z,8.70
2018-05-11T11:54:22.179Z,7.80
2018-05-11T11:56:51.496Z,6.67
2018-05-11T11:59:20.049Z,7.53
2018-05-11T12:01:49.407Z,8.80
2018-05-11T12:04:20.464Z,7.43
2018-05-11T12:06:49.941Z,6.87
2018-05-11T12:09:19.620Z,8.13
2018-05-11T12:11:50.641Z,7.53
2018-05-11T12:14:22.199Z,8.10
2018-05-11T12:16:50.745Z,8.30
2018-05-11T12:19:20.331Z,8.77
2018-05-11T12:21:52.526Z,10.27
2018-05-11T12:24:21.883Z,9.03
2018-05-11T12:26:51.387Z,8.70
2018-05-11T12:29:20.716Z,8.63
2018-05-11T12:31:50.303Z,7.30
2018-05-11T12:34:19.095Z,7.83
2018-05-11T12:36:49.177Z,7.83
2018-05-11T12:39:20.281Z,8.03
2018-05-11T12:41:50.451Z,9.97
2018-05-11T12:44:20.118Z,8.33
2018-05-11T12:46:52.484Z,8.30
2018-05-11T12:49:21.776Z,6.90
2018-05-11T12:51:51.346Z,8.40
2018-05-11T12:54:24.911Z,9.50
2018-05-11T12:56:53.468Z,8.40
2018-05-11T12:59:22.025Z,8.43
2018-05-11T13:01:52.266Z,6.80
2018-05-11T13:04:20.825Z,9.03
2018-05-11T13:06:49.584Z,6.57
2018-05-11T13:09:19.432Z,6.30
2018-05-11T13:11:48.027Z,11.87
2018-05-11T13:14:16.544Z,7.57
2018-05-11T13:16:45.047Z,7.13
2018-05-11T13:19:13.531Z,8.23
2018-05-11T13:21:41.998Z,7.20
2018-05-11T13:24:17.035Z,6.93
2018-05-11T13:26:45.588Z,8.67
2018-05-11T13:29:14.245Z,7.30
2018-05-11T13:31:42.791Z,5.90
2018-05-11T13:34:11.265Z,8.40
2018-05-11T13:36:39.814Z,7.60
2018-05-11T13:39:10.300Z,7.60
2018-05-11T13:41:38.802Z,6.83
2018-05-11T13:44:07.240Z,6.70
2018-05-11T13:46:35.697Z,7.00
2018-05-11T13:49:04.116Z,7.30
2018-05-11T13:51:32.559Z,7.87
2018-05-11T13:54:01.006Z,7.30
2018-05-11T13:56:29.505Z,8.13
2018-05-11T13:58:57.940Z,9.93
2018-05-11T14:01:26.393Z,9.17
2018-05-11T14:03:55.700Z,8.53
2018-05-11T14:06:24.316Z,8.90
2018-05-11T14:08:53.697Z,7.70
2018-05-11T14:11:22.221Z,7.40
2018-05-11T14:13:50.820Z,7.23
2018-05-11T14:16:19.427Z,7.17
2018-05-11T14:18:48.842Z,7.20
2018-05-11T14:21:17.392Z,6.97
2018-05-11T14:23:47.389Z,7.17
2018-05-11T14:26:16.831Z,6.80
2018-05-11T14:28:46.314Z,7.37
2018-05-11T14:31:14.869Z,5.83
2018-05-11T14:33:44.485Z,5.97
2018-05-11T14:36:13.027Z,5.37
2018-05-11T14:38:41.546Z,6.30
2018-05-11T14:41:10.811Z,9.17
2018-05-11T14:43:40.953Z,5.83
2018-05-11T14:46:09.455Z,5.13
2018-05-11T14:48:38.711Z,5.90
2018-05-11T14:51:07.273Z,4.93
2018-05-11T14:53:37.788Z,5.90
2018-05-11T14:56:06.373Z,5.43
2018-05-11T14:58:34.943Z,5.90
2018-05-11T15:01:04.334Z,4.87
2018-05-11T15:03:33.046Z,4.77
2018-05-11T15:06:01.735Z,5.67
2018-05-11T15:08:30.284Z,5.93
2018-05-11T15:10:59.847Z,5.13
2018-05-11T15:13:28.566Z,5.60
2018-05-11T15:15:57.160Z,4.73
2018-05-11T15:18:25.771Z,4.40
2018-05-11T15:20:54.567Z,5.00
2018-05-11T15:23:23.539Z,5.77
2018-05-11T15:25:52.128Z,5.10
2018-05-11T15:28:20.833Z,5.60
2018-05-11T15:30:49.779Z,5.70
2018-05-11T15:33:18.539Z,5.43
2018-05-11T15:35:47.358Z,6.97
2018-05-11T15:38:19.727Z,5.87
2018-05-11T15:40:48.725Z,4.47
2018-05-11T15:43:18.949Z,5.80
2018-05-11T15:45:48.759Z,5.83
2018-05-11T15:48:18.905Z,4.90
2018-05-11T15:50:48.826Z,6.27
2018-05-11T15:53:18.212Z,6.30
2018-05-11T15:55:47.392Z,6.93
2018-05-11T15:58:17.328Z,6.43
2018-05-11T16:00:46.355Z,8.00
2018-05-11T16:03:14.861Z,7.40
2018-05-11T16:05:43.364Z,6.87
2018-05-11T16:08:11.948Z,8.97
2018-05-11T16:10:40.439Z,8.03
2018-05-11T16:13:09.154Z,7.40
2018-05-11T16:15:38.124Z,8.57
2018-05-11T16:18:06.887Z,8.90
2018-05-11T16:20:35.491Z,9.80
2018-05-11T16:23:03.963Z,9.47
2018-05-11T16:25:32.417Z,10.20
2018-05-11T16:28:00.859Z,8.70
2018-05-11T16:30:29.370Z,9.87
2018-05-11T16:32:57.875Z,8.37
2018-05-11T16:35:27.262Z,8.87
2018-05-11T16:37:55.837Z,8.10
2018-05-11T16:40:24.462Z,8.53
2018-05-11T16:42:53.093Z,10.87
2018-05-11T16:45:21.887Z,8.23
2018-05-11T16:47:50.525Z,8.33
2018-05-11T16:50:19.364Z,7.20
2018-05-11T16:52:49.495Z,9.13
2018-05-11T16:55:19.425Z,7.60
2018-05-11T16:57:48.968Z,7.93
2018-05-11T17:00:19.633Z,7.70
2018-05-11T17:02:49.108Z,5.57
2018-05-11T17:05:17.954Z,7.77
2018-05-11T17:07:47.552Z,6.10
2018-05-11T17:10:16.306Z,6.77
2018-05-11T17:12:44.773Z,6.50
2018-05-11T17:15:13.264Z,6.03
2018-05-11T17:17:41.743Z,7.33
2018-05-11T17:20:10.415Z,8.60
2018-05-11T17:22:39.076Z,6.70
2018-05-11T17:25:07.831Z,6.40
2018-05-11T17:27:36.489Z,7.60
2018-05-11T17:30:05.048Z,7.80
2018-05-11T17:32:33.727Z,7.00
2018-05-11T17:35:02.250Z,8.77
2018-05-11T17:37:37.898Z,6.87
2018-05-11T17:40:06.637Z,9.80
2018-05-11T17:42:40.170Z,10.50
2018-05-11T17:45:08.821Z,8.40
2018-05-11T17:47:38.575Z,9.00
2018-05-11T17:50:07.224Z,9.73
2018-05-11T17:52:39.959Z,9.63
2018-05-11T17:55:08.623Z,8.23
2018-05-11T17:57:47.847Z,9.60
2018-05-11T18:00:19.515Z,7.87
2018-05-11T18:02:51.227Z,7.57
2018-05-11T18:05:20.024Z,9.53
2018-05-11T18:07:50.569Z,10.90
2018-05-11T18:10:19.835Z,8.33
2018-05-11T18:12:50.532Z,10.53
2018-05-11T18:15:22.561Z,9.50
2018-05-11T19:17:48.079Z,7.63
2018-05-11T19:20:17.052Z,8.10
2018-05-11T19:22:54.629Z,7.13
2018-05-11T19:25:26.860Z,8.70
2018-05-11T19:27:55.486Z,6.13
2018-05-11T19:30:23.957Z,8.40
2018-05-11T19:32:52.426Z,8.00
2018-05-11T19:36:03.589Z,6.07
2018-05-11T19:38:33.874Z,8.13
2018-05-11T19:41:02.414Z,7.30
2018-05-11T19:43:30.921Z,6.87
2018-05-11T19:46:02.031Z,6.13
2018-05-11T19:48:30.587Z,8.77
2018-05-11T19:51:11.373Z,8.03
2018-05-11T19:53:40.032Z,6.67
2018-05-11T19:56:12.426Z,8.60
2018-05-11T19:58:41.279Z,5.13
2018-05-11T20:01:09.949Z,5.93
2018-05-11T20:03:38.651Z,5.40
2018-05-11T20:06:07.281Z,6.10
2018-05-11T20:08:36.125Z,5.20
2018-05-11T20:11:06.076Z,6.30
2018-05-11T20:13:35.159Z,4.80
2018-05-11T20:16:04.449Z,6.63
2018-05-11T20:18:33.895Z,5.17
2018-05-11T20:21:02.454Z,7.37
2018-05-11T20:23:31.148Z,5.10
2018-05-11T20:25:59.732Z,7.50
2018-05-11T20:28:28.203Z,6.13
2018-05-11T20:30:57.562Z,7.03
2018-05-11T20:33:26.141Z,5.30
2018-05-11T20:35:55.195Z,6.63
2018-05-11T20:38:24.238Z,6.63
2018-05-11T20:40:53.290Z,6.23
2018-05-11T20:43:28.571Z,6.70
2018-05-11T20:45:57.545Z,6.93
2018-05-11T20:48:26.516Z,6.30
2018-05-11T20:50:55.076Z,6.77
2018-05-11T20:53:23.535Z,7.60
2018-05-11T20:55:52.073Z,5.83
2018-05-11T20:58:20.532Z,7.47
2018-05-11T21:00:49.772Z,6.40
2018-05-11T21:03:18.206Z,8.37
2018-05-11T21:05:46.699Z,11.33
2018-05-11T21:08:15.139Z,8.23
2018-05-11T21:10:43.722Z,6.33
2018-05-11T21:13:12.350Z,8.03
2018-05-11T21:15:41.019Z,7.60
2018-05-11T21:18:09.710Z,9.17
2018-05-11T21:20:38.553Z,6.67
2018-05-11T21:23:07.423Z,9.10
2018-05-11T21:25:36.916Z,11.53
2018-05-11T21:28:05.516Z,8.73
2018-05-11T21:30:33.954Z,7.50
2018-05-11T21:33:03.059Z,7.73
2018-05-11T21:35:33.022Z,9.20
2018-05-11T21:38:01.889Z,7.13
2018-05-11T21:40:30.718Z,7.17
2018-05-11T21:42:59.835Z,7.10
2018-05-11T21:45:28.359Z,7.40
2018-05-11T21:47:57.610Z,7.20
2018-05-11T21:50:26.055Z,7.30
2018-05-11T21:52:54.527Z,7.83
2018-05-11T21:55:23.075Z,8.33
2018-05-11T21:57:51.657Z,8.90
2018-05-11T22:00:20.100Z,7.20
2018-05-11T22:02:48.595Z,10.70
2018-05-11T22:05:17.080Z,7.63
2018-05-11T22:07:47.034Z,9.93
2018-05-11T22:10:15.545Z,8.27
2018-05-11T22:12:43.983Z,8.27
2018-05-11T22:15:12.458Z,8.87
2018-05-11T22:17:40.880Z,10.30
2018-05-11T22:20:09.317Z,7.00
2018-05-11T22:22:37.743Z,10.00
2018-05-11T22:25:06.234Z,10.47
2018-05-11T22:27:34.952Z,11.20
2018-05-11T22:30:04.463Z,7.03
2018-05-11T22:32:33.355Z,7.03
2018-05-11T22:35:02.095Z,9.77
2018-05-11T22:37:30.787Z,8.50
2018-05-11T22:39:59.344Z,6.53
2018-05-11T22:42:27.801Z,7.47
2018-05-11T22:44:56.250Z,8.07
2018-05-11T22:47:24.777Z,7.27
2018-05-11T22:49:53.294Z,8.20
2018-05-11T22:52:21.875Z,8.27
2018-05-11T22:54:51.192Z,7.80
2018-05-11T22:57:20.440Z,8.07
2018-05-11T22:59:48.890Z,6.60
2018-05-11T23:02:17.324Z,6.73
2018-05-11T23:04:52.206Z,8.00
2018-05-11T23:07:20.750Z,7.60
2018-05-11T23:09:49.209Z,7.10
2018-05-11T23:12:18.455Z,7.77
2018-05-11T23:14:47.103Z,7.73
2018-05-11T23:17:15.778Z,7.70
2018-05-11T23:19:44.619Z,8.07
2018-05-11T23:22:14.012Z,7.67
2018-05-11T23:24:42.459Z,6.83
2018-05-11T23:27:10.899Z,8.97
2018-05-11T23:29:39.363Z,8.20
2018-05-11T23:32:07.858Z,9.03
2018-05-11T23:34:36.372Z,7.80
2018-05-11T23:37:05.021Z,8.50
2018-05-11T23:39:33.487Z,8.30
2018-05-11T23:42:01.963Z,8.43
2018-05-11T23:44:30.431Z,8.03
2018-05-11T23:46:58.985Z,8.13
2018-05-11T23:49:29.384Z,7.60
2018-05-11T23:51:58.700Z,9.33
2018-05-11T23:54:27.256Z,10.03
2018-05-11T23:56:55.707Z,10.30
2018-05-11T23:59:24.135Z,8.20
